sensor_id;sensor_type;location;lat;lon;timestamp;P1;durP1;ratioP1;P2;durP2;ratioP2
74551;SDS011;63025;55.472;38.432;2023-12-20T00:01:50;3.90;;;2.17;;
74551;SDS011;63025;55.472;38.432;2023-12-20T00:04:16;4.85;;;2.47;;
74551;SDS011;63025;55.472;38.432;2023-12-20T00:06:42;4.32;;;2.05;;
74551;SDS011;63025;55.472;38.432;2023-12-20T00:09:08;4.07;;;2.10;;
74551;SDS011;63025;55.472;38.432;2023-12-20T00:11:34;4.05;;;2.20;;
74551;SDS011;63025;55.472;38.432;2023-12-20T00:14:00;4.22;;;2.17;;
74551;SDS011;63025;55.472;38.432;2023-12-20T00:16:25;4.70;;;2.25;;
74551;SDS011;63025;55.472;38.432;2023-12-20T00:18:51;3.85;;;2.00;;
74551;SDS011;63025;55.472;38.432;2023-12-20T00:21:17;4.50;;;2.20;;
74551;SDS011;63025;55.472;38.432;2023-12-20T00:23:43;4.80;;;2.20;;
74551;SDS011;63025;55.472;38.432;2023-12-20T00:26:09;4.63;;;2.22;;
74551;SDS011;63025;55.472;38.432;2023-12-20T00:28:35;5.70;;;2.30;;
74551;SDS011;63025;55.472;38.432;2023-12-20T00:31:01;5.50;;;2.25;;
74551;SDS011;63025;55.472;38.432;2023-12-20T00:33:27;5.05;;;2.42;;
74551;SDS011;63025;55.472;38.432;2023-12-20T00:35:53;4.20;;;2.30;;
74551;SDS011;63025;55.472;38.432;2023-12-20T00:38:19;4.15;;;2.10;;
74551;SDS011;63025;55.472;38.432;2023-12-20T00:40:45;5.70;;;2.47;;
74551;SDS011;63025;55.472;38.432;2023-12-20T00:43:11;5.80;;;2.25;;
74551;SDS011;63025;55.472;38.432;2023-12-20T00:45:37;4.18;;;2.25;;
74551;SDS011;63025;55.472;38.432;2023-12-20T00:48:03;4.80;;;2.50;;
74551;SDS011;63025;55.472;38.432;2023-12-20T00:50:29;4.88;;;2.25;;
74551;SDS011;63025;55.472;38.432;2023-12-20T00:52:55;4.07;;;2.25;;
74551;SDS011;63025;55.472;38.432;2023-12-20T00:55:21;4.60;;;2.55;;
74551;SDS011;63025;55.472;38.432;2023-12-20T00:57:47;4.22;;;2.40;;
74551;SDS011;63025;55.472;38.432;2023-12-20T01:00:13;4.65;;;2.22;;
74551;SDS011;63025;55.472;38.432;2023-12-20T01:02:39;6.75;;;2.33;;
74551;SDS011;63025;55.472;38.432;2023-12-20T01:05:06;5.65;;;2.70;;
74551;SDS011;63025;55.472;38.432;2023-12-20T01:07:33;4.50;;;2.30;;
74551;SDS011;63025;55.472;38.432;2023-12-20T01:09:59;3.88;;;2.10;;
74551;SDS011;63025;55.472;38.432;2023-12-20T01:12:25;6.07;;;2.53;;
74551;SDS011;63025;55.472;38.432;2023-12-20T01:14:51;3.97;;;2.28;;
74551;SDS011;63025;55.472;38.432;2023-12-20T01:17:17;4.25;;;2.17;;
74551;SDS011;63025;55.472;38.432;2023-12-20T01:19:43;4.22;;;2.28;;
74551;SDS011;63025;55.472;38.432;2023-12-20T01:22:09;5.72;;;2.63;;
74551;SDS011;63025;55.472;38.432;2023-12-20T01:24:34;6.30;;;2.50;;
74551;SDS011;63025;55.472;38.432;2023-12-20T01:27:00;4.05;;;2.50;;
74551;SDS011;63025;55.472;38.432;2023-12-20T01:29:26;7.15;;;3.40;;
74551;SDS011;63025;55.472;38.432;2023-12-20T01:31:52;5.88;;;3.55;;
74551;SDS011;63025;55.472;38.432;2023-12-20T01:34:18;6.47;;;3.33;;
74551;SDS011;63025;55.472;38.432;2023-12-20T01:36:43;7.57;;;3.90;;
74551;SDS011;63025;55.472;38.432;2023-12-20T01:39:10;6.47;;;3.17;;
74551;SDS011;63025;55.472;38.432;2023-12-20T01:41:35;9.30;;;3.78;;
74551;SDS011;63025;55.472;38.432;2023-12-20T01:44:01;5.57;;;3.20;;
74551;SDS011;63025;55.472;38.432;2023-12-20T01:46:27;6.13;;;3.30;;
74551;SDS011;63025;55.472;38.432;2023-12-20T01:48:53;5.47;;;3.08;;
74551;SDS011;63025;55.472;38.432;2023-12-20T01:51:19;6.13;;;3.10;;
74551;SDS011;63025;55.472;38.432;2023-12-20T01:53:46;5.05;;;2.58;;
74551;SDS011;63025;55.472;38.432;2023-12-20T01:56:12;7.80;;;3.03;;
74551;SDS011;63025;55.472;38.432;2023-12-20T01:58:40;4.63;;;2.30;;
74551;SDS011;63025;55.472;38.432;2023-12-20T02:01:09;3.83;;;2.20;;
74551;SDS011;63025;55.472;38.432;2023-12-20T02:03:41;4.25;;;2.10;;
74551;SDS011;63025;55.472;38.432;2023-12-20T02:06:07;3.53;;;1.80;;
74551;SDS011;63025;55.472;38.432;2023-12-20T02:08:34;4.30;;;2.10;;
74551;SDS011;63025;55.472;38.432;2023-12-20T02:11:01;4.55;;;2.03;;
74551;SDS011;63025;55.472;38.432;2023-12-20T02:13:27;4.72;;;1.83;;
74551;SDS011;63025;55.472;38.432;2023-12-20T02:15:54;5.25;;;1.70;;
74551;SDS011;63025;55.472;38.432;2023-12-20T02:18:21;4.57;;;1.80;;
74551;SDS011;63025;55.472;38.432;2023-12-20T02:20:47;4.35;;;1.60;;
74551;SDS011;63025;55.472;38.432;2023-12-20T02:23:13;4.28;;;1.42;;
74551;SDS011;63025;55.472;38.432;2023-12-20T02:25:39;2.72;;;1.33;;
74551;SDS011;63025;55.472;38.432;2023-12-20T02:28:05;2.95;;;1.30;;
74551;SDS011;63025;55.472;38.432;2023-12-20T02:30:32;3.35;;;1.20;;
74551;SDS011;63025;55.472;38.432;2023-12-20T02:32:59;3.17;;;1.30;;
74551;SDS011;63025;55.472;38.432;2023-12-20T02:35:27;4.10;;;1.30;;
74551;SDS011;63025;55.472;38.432;2023-12-20T02:37:53;4.30;;;1.40;;
74551;SDS011;63025;55.472;38.432;2023-12-20T02:40:18;2.88;;;1.00;;
74551;SDS011;63025;55.472;38.432;2023-12-20T02:42:44;2.60;;;1.20;;
74551;SDS011;63025;55.472;38.432;2023-12-20T02:45:10;3.78;;;1.00;;
74551;SDS011;63025;55.472;38.432;2023-12-20T02:47:36;2.72;;;0.90;;
74551;SDS011;63025;55.472;38.432;2023-12-20T02:50:02;4.93;;;1.10;;
74551;SDS011;63025;55.472;38.432;2023-12-20T02:52:30;3.35;;;1.13;;
74551;SDS011;63025;55.472;38.432;2023-12-20T02:54:56;2.97;;;0.90;;
74551;SDS011;63025;55.472;38.432;2023-12-20T02:57:22;2.80;;;1.00;;
74551;SDS011;63025;55.472;38.432;2023-12-20T02:59:48;3.20;;;0.90;;
74551;SDS011;63025;55.472;38.432;2023-12-20T03:02:14;3.78;;;1.20;;
74551;SDS011;63025;55.472;38.432;2023-12-20T03:04:41;3.17;;;0.85;;
74551;SDS011;63025;55.472;38.432;2023-12-20T03:07:07;3.03;;;1.00;;
74551;SDS011;63025;55.472;38.432;2023-12-20T03:09:32;4.43;;;1.10;;
74551;SDS011;63025;55.472;38.432;2023-12-20T03:11:58;4.13;;;1.00;;
74551;SDS011;63025;55.472;38.432;2023-12-20T03:14:24;3.70;;;1.40;;
74551;SDS011;63025;55.472;38.432;2023-12-20T03:16:50;5.35;;;1.42;;
74551;SDS011;63025;55.472;38.432;2023-12-20T03:19:17;3.80;;;1.55;;
74551;SDS011;63025;55.472;38.432;2023-12-20T03:21:45;3.22;;;1.67;;
74551;SDS011;63025;55.472;38.432;2023-12-20T03:24:11;4.85;;;2.10;;
74551;SDS011;63025;55.472;38.432;2023-12-20T03:26:37;4.70;;;2.15;;
74551;SDS011;63025;55.472;38.432;2023-12-20T03:29:03;6.68;;;3.08;;
74551;SDS011;63025;55.472;38.432;2023-12-20T03:31:29;6.43;;;3.13;;
74551;SDS011;63025;55.472;38.432;2023-12-20T03:33:55;7.90;;;3.60;;
74551;SDS011;63025;55.472;38.432;2023-12-20T03:36:21;5.90;;;3.58;;
74551;SDS011;63025;55.472;38.432;2023-12-20T03:38:47;6.43;;;3.55;;
74551;SDS011;63025;55.472;38.432;2023-12-20T03:41:13;7.78;;;4.00;;
74551;SDS011;63025;55.472;38.432;2023-12-20T03:43:39;8.88;;;4.00;;
74551;SDS011;63025;55.472;38.432;2023-12-20T03:46:05;7.10;;;3.65;;
74551;SDS011;63025;55.472;38.432;2023-12-20T03:48:33;8.85;;;4.13;;
74551;SDS011;63025;55.472;38.432;2023-12-20T03:50:59;8.15;;;3.90;;
74551;SDS011;63025;55.472;38.432;2023-12-20T03:53:25;6.50;;;3.85;;
74551;SDS011;63025;55.472;38.432;2023-12-20T03:55:51;8.10;;;4.00;;
74551;SDS011;63025;55.472;38.432;2023-12-20T03:58:16;6.60;;;3.90;;
74551;SDS011;63025;55.472;38.432;2023-12-20T04:00:42;7.40;;;3.85;;
74551;SDS011;63025;55.472;38.432;2023-12-20T04:03:08;7.93;;;3.70;;
74551;SDS011;63025;55.472;38.432;2023-12-20T04:05:34;7.97;;;4.07;;
74551;SDS011;63025;55.472;38.432;2023-12-20T04:08:01;6.53;;;3.67;;
74551;SDS011;63025;55.472;38.432;2023-12-20T04:10:27;5.88;;;3.40;;
74551;SDS011;63025;55.472;38.432;2023-12-20T04:12:53;5.55;;;3.25;;
74551;SDS011;63025;55.472;38.432;2023-12-20T04:15:20;5.88;;;2.83;;
74551;SDS011;63025;55.472;38.432;2023-12-20T04:17:46;5.22;;;2.80;;
74551;SDS011;63025;55.472;38.432;2023-12-20T04:20:12;6.95;;;3.22;;
74551;SDS011;63025;55.472;38.432;2023-12-20T04:22:38;5.90;;;2.80;;
74551;SDS011;63025;55.472;38.432;2023-12-20T04:25:04;5.65;;;3.17;;
74551;SDS011;63025;55.472;38.432;2023-12-20T04:27:31;6.00;;;3.00;;
74551;SDS011;63025;55.472;38.432;2023-12-20T04:29:57;5.00;;;2.67;;
74551;SDS011;63025;55.472;38.432;2023-12-20T04:32:23;7.20;;;2.60;;
74551;SDS011;63025;55.472;38.432;2023-12-20T04:34:49;4.15;;;2.38;;
74551;SDS011;63025;55.472;38.432;2023-12-20T04:37:15;4.90;;;2.60;;
74551;SDS011;63025;55.472;38.432;2023-12-20T04:39:40;5.65;;;2.40;;
74551;SDS011;63025;55.472;38.432;2023-12-20T04:42:07;5.35;;;2.60;;
74551;SDS011;63025;55.472;38.432;2023-12-20T04:44:33;4.35;;;2.38;;
74551;SDS011;63025;55.472;38.432;2023-12-20T04:46:59;4.53;;;2.38;;
74551;SDS011;63025;55.472;38.432;2023-12-20T04:49:25;5.15;;;2.50;;
74551;SDS011;63025;55.472;38.432;2023-12-20T04:51:51;4.93;;;2.53;;
74551;SDS011;63025;55.472;38.432;2023-12-20T04:54:16;4.40;;;2.25;;
74551;SDS011;63025;55.472;38.432;2023-12-20T04:56:42;5.22;;;2.42;;
74551;SDS011;63025;55.472;38.432;2023-12-20T04:59:08;9.30;;;2.67;;
74551;SDS011;63025;55.472;38.432;2023-12-20T05:01:34;6.57;;;2.80;;
74551;SDS011;63025;55.472;38.432;2023-12-20T05:04:00;4.70;;;2.40;;
74551;SDS011;63025;55.472;38.432;2023-12-20T05:06:26;5.95;;;2.67;;
74551;SDS011;63025;55.472;38.432;2023-12-20T05:08:52;5.60;;;3.15;;
74551;SDS011;63025;55.472;38.432;2023-12-20T05:11:18;5.00;;;2.83;;
74551;SDS011;63025;55.472;38.432;2023-12-20T05:13:44;5.45;;;2.58;;
74551;SDS011;63025;55.472;38.432;2023-12-20T05:16:10;7.03;;;3.05;;
74551;SDS011;63025;55.472;38.432;2023-12-20T05:18:36;6.20;;;2.80;;
74551;SDS011;63025;55.472;38.432;2023-12-20T05:21:02;7.57;;;3.10;;
74551;SDS011;63025;55.472;38.432;2023-12-20T05:23:28;8.15;;;3.50;;
74551;SDS011;63025;55.472;38.432;2023-12-20T05:25:54;5.80;;;3.22;;
74551;SDS011;63025;55.472;38.432;2023-12-20T05:28:21;7.22;;;3.40;;
74551;SDS011;63025;55.472;38.432;2023-12-20T05:30:46;6.47;;;3.47;;
74551;SDS011;63025;55.472;38.432;2023-12-20T05:33:12;9.20;;;3.65;;
74551;SDS011;63025;55.472;38.432;2023-12-20T05:35:38;7.30;;;3.55;;
74551;SDS011;63025;55.472;38.432;2023-12-20T05:38:04;6.40;;;3.55;;
74551;SDS011;63025;55.472;38.432;2023-12-20T05:40:30;6.50;;;3.45;;
74551;SDS011;63025;55.472;38.432;2023-12-20T05:42:55;7.10;;;3.22;;
74551;SDS011;63025;55.472;38.432;2023-12-20T05:45:21;6.25;;;2.95;;
74551;SDS011;63025;55.472;38.432;2023-12-20T05:47:47;7.40;;;3.15;;
74551;SDS011;63025;55.472;38.432;2023-12-20T05:50:13;6.22;;;3.03;;
74551;SDS011;63025;55.472;38.432;2023-12-20T05:52:39;7.75;;;3.47;;
74551;SDS011;63025;55.472;38.432;2023-12-20T05:55:05;6.35;;;3.05;;
74551;SDS011;63025;55.472;38.432;2023-12-20T05:57:33;6.90;;;3.00;;
74551;SDS011;63025;55.472;38.432;2023-12-20T05:59:59;6.93;;;3.47;;
74551;SDS011;63025;55.472;38.432;2023-12-20T06:02:25;6.15;;;2.75;;
74551;SDS011;63025;55.472;38.432;2023-12-20T06:04:51;5.43;;;2.95;;
74551;SDS011;63025;55.472;38.432;2023-12-20T06:07:17;6.07;;;3.20;;
74551;SDS011;63025;55.472;38.432;2023-12-20T06:09:42;6.38;;;3.35;;
74551;SDS011;63025;55.472;38.432;2023-12-20T06:12:08;5.90;;;3.20;;
74551;SDS011;63025;55.472;38.432;2023-12-20T06:14:35;6.38;;;3.63;;
74551;SDS011;63025;55.472;38.432;2023-12-20T06:17:02;6.15;;;3.17;;
74551;SDS011;63025;55.472;38.432;2023-12-20T06:19:28;6.75;;;3.10;;
74551;SDS011;63025;55.472;38.432;2023-12-20T06:21:54;6.00;;;2.90;;
74551;SDS011;63025;55.472;38.432;2023-12-20T06:24:20;6.93;;;2.80;;
74551;SDS011;63025;55.472;38.432;2023-12-20T06:26:47;5.15;;;2.90;;
74551;SDS011;63025;55.472;38.432;2023-12-20T06:29:13;5.70;;;2.92;;
74551;SDS011;63025;55.472;38.432;2023-12-20T06:31:39;6.40;;;3.35;;
74551;SDS011;63025;55.472;38.432;2023-12-20T06:34:05;6.50;;;3.13;;
74551;SDS011;63025;55.472;38.432;2023-12-20T06:36:31;6.28;;;3.30;;
74551;SDS011;63025;55.472;38.432;2023-12-20T06:38:57;5.85;;;3.05;;
74551;SDS011;63025;55.472;38.432;2023-12-20T06:41:23;6.07;;;2.90;;
74551;SDS011;63025;55.472;38.432;2023-12-20T06:43:50;6.70;;;2.58;;
74551;SDS011;63025;55.472;38.432;2023-12-20T06:46:18;5.20;;;2.40;;
74551;SDS011;63025;55.472;38.432;2023-12-20T06:48:44;5.70;;;2.75;;
74551;SDS011;63025;55.472;38.432;2023-12-20T06:51:14;4.72;;;2.78;;
74551;SDS011;63025;55.472;38.432;2023-12-20T06:53:41;5.30;;;2.45;;
74551;SDS011;63025;55.472;38.432;2023-12-20T06:56:07;6.60;;;3.03;;
74551;SDS011;63025;55.472;38.432;2023-12-20T06:58:33;4.82;;;2.63;;
74551;SDS011;63025;55.472;38.432;2023-12-20T07:00:59;7.10;;;2.92;;
74551;SDS011;63025;55.472;38.432;2023-12-20T07:03:25;5.07;;;2.60;;
74551;SDS011;63025;55.472;38.432;2023-12-20T07:05:51;5.78;;;2.83;;
74551;SDS011;63025;55.472;38.432;2023-12-20T07:08:17;6.25;;;2.60;;
74551;SDS011;63025;55.472;38.432;2023-12-20T07:10:43;4.78;;;2.53;;
74551;SDS011;63025;55.472;38.432;2023-12-20T07:13:09;5.65;;;2.70;;
74551;SDS011;63025;55.472;38.432;2023-12-20T07:15:34;4.28;;;2.38;;
74551;SDS011;63025;55.472;38.432;2023-12-20T07:18:02;5.10;;;2.47;;
74551;SDS011;63025;55.472;38.432;2023-12-20T07:20:28;4.40;;;2.22;;
74551;SDS011;63025;55.472;38.432;2023-12-20T07:22:53;4.18;;;2.10;;
74551;SDS011;63025;55.472;38.432;2023-12-20T07:25:20;4.95;;;2.15;;
74551;SDS011;63025;55.472;38.432;2023-12-20T07:27:46;4.25;;;2.05;;
74551;SDS011;63025;55.472;38.432;2023-12-20T07:30:12;3.67;;;2.10;;
74551;SDS011;63025;55.472;38.432;2023-12-20T07:32:38;4.20;;;1.98;;
74551;SDS011;63025;55.472;38.432;2023-12-20T07:35:04;3.15;;;1.65;;
74551;SDS011;63025;55.472;38.432;2023-12-20T07:37:31;3.97;;;1.98;;
74551;SDS011;63025;55.472;38.432;2023-12-20T07:39:56;3.90;;;2.13;;
74551;SDS011;63025;55.472;38.432;2023-12-20T07:42:22;5.15;;;2.00;;
74551;SDS011;63025;55.472;38.432;2023-12-20T07:44:48;4.68;;;2.00;;
74551;SDS011;63025;55.472;38.432;2023-12-20T07:47:14;5.82;;;2.13;;
74551;SDS011;63025;55.472;38.432;2023-12-20T07:49:42;4.20;;;2.13;;
74551;SDS011;63025;55.472;38.432;2023-12-20T07:52:08;3.50;;;1.70;;
74551;SDS011;63025;55.472;38.432;2023-12-20T07:54:34;5.05;;;2.00;;
74551;SDS011;63025;55.472;38.432;2023-12-20T07:57:00;3.67;;;1.67;;
74551;SDS011;63025;55.472;38.432;2023-12-20T07:59:26;5.30;;;1.95;;
74551;SDS011;63025;55.472;38.432;2023-12-20T08:01:52;2.83;;;1.58;;
74551;SDS011;63025;55.472;38.432;2023-12-20T08:04:17;3.67;;;1.92;;
74551;SDS011;63025;55.472;38.432;2023-12-20T08:06:43;3.08;;;1.70;;
74551;SDS011;63025;55.472;38.432;2023-12-20T08:09:09;3.47;;;1.60;;
74551;SDS011;63025;55.472;38.432;2023-12-20T08:11:36;4.85;;;1.90;;
74551;SDS011;63025;55.472;38.432;2023-12-20T08:14:01;3.20;;;1.90;;
74551;SDS011;63025;55.472;38.432;2023-12-20T08:16:27;3.75;;;1.85;;
74551;SDS011;63025;55.472;38.432;2023-12-20T08:18:53;4.75;;;1.92;;
74551;SDS011;63025;55.472;38.432;2023-12-20T08:21:19;3.92;;;1.70;;
74551;SDS011;63025;55.472;38.432;2023-12-20T08:23:47;4.07;;;2.10;;
74551;SDS011;63025;55.472;38.432;2023-12-20T08:26:13;4.00;;;1.90;;
74551;SDS011;63025;55.472;38.432;2023-12-20T08:28:39;4.05;;;2.13;;
74551;SDS011;63025;55.472;38.432;2023-12-20T08:31:04;4.18;;;2.10;;
74551;SDS011;63025;55.472;38.432;2023-12-20T08:33:30;3.33;;;1.90;;
74551;SDS011;63025;55.472;38.432;2023-12-20T08:35:56;5.00;;;2.13;;
74551;SDS011;63025;55.472;38.432;2023-12-20T08:38:22;4.00;;;2.30;;
74551;SDS011;63025;55.472;38.432;2023-12-20T08:40:48;4.00;;;2.20;;
74551;SDS011;63025;55.472;38.432;2023-12-20T08:43:14;4.90;;;2.22;;
74551;SDS011;63025;55.472;38.432;2023-12-20T08:45:40;3.75;;;2.00;;
74551;SDS011;63025;55.472;38.432;2023-12-20T08:48:06;4.05;;;2.30;;
74551;SDS011;63025;55.472;38.432;2023-12-20T08:50:32;6.10;;;2.15;;
74551;SDS011;63025;55.472;38.432;2023-12-20T08:52:58;5.60;;;1.98;;
74551;SDS011;63025;55.472;38.432;2023-12-20T08:55:24;5.93;;;2.30;;
74551;SDS011;63025;55.472;38.432;2023-12-20T08:57:50;4.35;;;2.30;;
74551;SDS011;63025;55.472;38.432;2023-12-20T09:00:16;5.47;;;2.53;;
74551;SDS011;63025;55.472;38.432;2023-12-20T09:02:42;6.15;;;2.50;;
74551;SDS011;63025;55.472;38.432;2023-12-20T09:05:08;4.43;;;2.42;;
74551;SDS011;63025;55.472;38.432;2023-12-20T09:07:34;5.25;;;2.50;;
74551;SDS011;63025;55.472;38.432;2023-12-20T09:10:00;5.60;;;2.67;;
74551;SDS011;63025;55.472;38.432;2023-12-20T09:12:26;4.82;;;2.28;;
74551;SDS011;63025;55.472;38.432;2023-12-20T09:14:53;5.70;;;2.53;;
74551;SDS011;63025;55.472;38.432;2023-12-20T09:17:19;5.95;;;2.40;;
74551;SDS011;63025;55.472;38.432;2023-12-20T09:19:46;5.07;;;2.30;;
74551;SDS011;63025;55.472;38.432;2023-12-20T09:22:12;5.53;;;2.67;;
74551;SDS011;63025;55.472;38.432;2023-12-20T09:24:38;5.05;;;2.40;;
74551;SDS011;63025;55.472;38.432;2023-12-20T09:27:04;5.47;;;2.30;;
74551;SDS011;63025;55.472;38.432;2023-12-20T09:29:31;5.35;;;2.60;;
74551;SDS011;63025;55.472;38.432;2023-12-20T09:31:57;4.20;;;2.20;;
74551;SDS011;63025;55.472;38.432;2023-12-20T09:34:23;6.68;;;2.90;;
74551;SDS011;63025;55.472;38.432;2023-12-20T09:36:49;5.82;;;2.80;;
74551;SDS011;63025;55.472;38.432;2023-12-20T09:39:16;4.80;;;2.53;;
74551;SDS011;63025;55.472;38.432;2023-12-20T09:41:49;5.63;;;2.80;;
74551;SDS011;63025;55.472;38.432;2023-12-20T09:44:25;5.47;;;2.83;;
74551;SDS011;63025;55.472;38.432;2023-12-20T09:46:51;5.57;;;2.72;;
74551;SDS011;63025;55.472;38.432;2023-12-20T09:49:20;6.85;;;2.50;;
74551;SDS011;63025;55.472;38.432;2023-12-20T09:51:47;5.00;;;2.80;;
74551;SDS011;63025;55.472;38.432;2023-12-20T09:54:16;5.22;;;3.00;;
74551;SDS011;63025;55.472;38.432;2023-12-20T09:56:46;4.97;;;2.80;;
74551;SDS011;63025;55.472;38.432;2023-12-20T09:59:12;5.85;;;3.00;;
74551;SDS011;63025;55.472;38.432;2023-12-20T10:01:40;5.70;;;3.25;;
74551;SDS011;63025;55.472;38.432;2023-12-20T10:04:07;6.53;;;2.90;;
74551;SDS011;63025;55.472;38.432;2023-12-20T10:06:35;8.52;;;3.30;;
74551;SDS011;63025;55.472;38.432;2023-12-20T10:09:02;6.30;;;3.42;;
74551;SDS011;63025;55.472;38.432;2023-12-20T10:11:29;6.80;;;2.83;;
74551;SDS011;63025;55.472;38.432;2023-12-20T10:14:01;6.43;;;3.08;;
74551;SDS011;63025;55.472;38.432;2023-12-20T10:16:27;5.72;;;3.15;;
74551;SDS011;63025;55.472;38.432;2023-12-20T10:18:54;4.70;;;2.70;;
74551;SDS011;63025;55.472;38.432;2023-12-20T10:21:20;5.65;;;3.13;;
74551;SDS011;63025;55.472;38.432;2023-12-20T10:23:51;4.93;;;2.90;;
74551;SDS011;63025;55.472;38.432;2023-12-20T10:26:20;4.63;;;2.97;;
74551;SDS011;63025;55.472;38.432;2023-12-20T10:28:59;5.47;;;3.28;;
74551;SDS011;63025;55.472;38.432;2023-12-20T10:31:29;5.13;;;2.97;;
74551;SDS011;63025;55.472;38.432;2023-12-20T10:33:57;5.60;;;3.05;;
74551;SDS011;63025;55.472;38.432;2023-12-20T10:36:25;5.88;;;3.10;;
74551;SDS011;63025;55.472;38.432;2023-12-20T10:38:52;5.60;;;3.10;;
74551;SDS011;63025;55.472;38.432;2023-12-20T10:41:21;5.55;;;2.92;;
74551;SDS011;63025;55.472;38.432;2023-12-20T10:43:59;6.22;;;3.00;;
74551;SDS011;63025;55.472;38.432;2023-12-20T10:46:29;5.70;;;2.83;;
74551;SDS011;63025;55.472;38.432;2023-12-20T10:48:58;7.60;;;2.85;;
74551;SDS011;63025;55.472;38.432;2023-12-20T10:51:27;5.63;;;2.92;;
74551;SDS011;63025;55.472;38.432;2023-12-20T10:53:55;6.28;;;3.35;;
74551;SDS011;63025;55.472;38.432;2023-12-20T10:56:21;6.47;;;2.92;;
74551;SDS011;63025;55.472;38.432;2023-12-20T10:58:49;5.10;;;2.53;;
74551;SDS011;63025;55.472;38.432;2023-12-20T11:01:15;5.85;;;3.03;;
74551;SDS011;63025;55.472;38.432;2023-12-20T11:03:53;5.53;;;3.60;;
74551;SDS011;63025;55.472;38.432;2023-12-20T11:09:19;5.90;;;3.05;;
74551;SDS011;63025;55.472;38.432;2023-12-20T11:14:29;5.25;;;2.83;;
74551;SDS011;63025;55.472;38.432;2023-12-20T11:17:06;5.70;;;3.30;;
74551;SDS011;63025;55.472;38.432;2023-12-20T11:19:35;5.00;;;2.83;;
74551;SDS011;63025;55.472;38.432;2023-12-20T11:22:03;5.97;;;3.10;;
74551;SDS011;63025;55.472;38.432;2023-12-20T11:24:30;6.47;;;3.28;;
74551;SDS011;63025;55.472;38.432;2023-12-20T11:26:59;5.35;;;3.08;;
74551;SDS011;63025;55.472;38.432;2023-12-20T11:29:29;6.53;;;3.22;;
74551;SDS011;63025;55.472;38.432;2023-12-20T11:31:56;4.78;;;2.63;;
74551;SDS011;63025;55.472;38.432;2023-12-20T11:34:37;7.38;;;3.30;;
74551;SDS011;63025;55.472;38.432;2023-12-20T11:37:03;5.78;;;3.28;;
74551;SDS011;63025;55.472;38.432;2023-12-20T11:39:30;5.72;;;3.25;;
74551;SDS011;63025;55.472;38.432;2023-12-20T11:41:56;5.22;;;3.28;;
74551;SDS011;63025;55.472;38.432;2023-12-20T11:44:24;5.32;;;2.70;;
74551;SDS011;63025;55.472;38.432;2023-12-20T11:46:51;5.15;;;3.05;;
74551;SDS011;63025;55.472;38.432;2023-12-20T11:49:22;6.22;;;3.22;;
74551;SDS011;63025;55.472;38.432;2023-12-20T11:51:48;6.07;;;3.35;;
74551;SDS011;63025;55.472;38.432;2023-12-20T11:54:14;5.28;;;2.55;;
74551;SDS011;63025;55.472;38.432;2023-12-20T11:56:41;5.43;;;2.80;;
74551;SDS011;63025;55.472;38.432;2023-12-20T11:59:08;6.18;;;3.05;;
74551;SDS011;63025;55.472;38.432;2023-12-20T12:01:34;5.60;;;3.00;;
74551;SDS011;63025;55.472;38.432;2023-12-20T12:04:04;7.47;;;3.30;;
74551;SDS011;63025;55.472;38.432;2023-12-20T12:06:33;6.03;;;3.30;;
74551;SDS011;63025;55.472;38.432;2023-12-20T12:08:59;5.68;;;3.55;;
74551;SDS011;63025;55.472;38.432;2023-12-20T12:11:25;5.43;;;3.35;;
74551;SDS011;63025;55.472;38.432;2023-12-20T12:13:51;5.25;;;3.00;;
74551;SDS011;63025;55.472;38.432;2023-12-20T12:16:20;5.20;;;2.80;;
74551;SDS011;63025;55.472;38.432;2023-12-20T12:18:46;4.97;;;2.97;;
74551;SDS011;63025;55.472;38.432;2023-12-20T12:21:19;5.20;;;2.85;;
74551;SDS011;63025;55.472;38.432;2023-12-20T12:23:48;5.70;;;2.78;;
74551;SDS011;63025;55.472;38.432;2023-12-20T12:26:14;5.10;;;2.72;;
74551;SDS011;63025;55.472;38.432;2023-12-20T12:28:40;5.20;;;2.78;;
74551;SDS011;63025;55.472;38.432;2023-12-20T12:31:08;4.18;;;2.60;;
74551;SDS011;63025;55.472;38.432;2023-12-20T12:33:39;6.07;;;2.78;;
74551;SDS011;63025;55.472;38.432;2023-12-20T12:36:07;6.85;;;2.58;;
74551;SDS011;63025;55.472;38.432;2023-12-20T12:38:33;5.43;;;2.75;;
74551;SDS011;63025;55.472;38.432;2023-12-20T12:41:00;5.68;;;2.42;;
74551;SDS011;63025;55.472;38.432;2023-12-20T12:43:26;5.07;;;2.25;;
74551;SDS011;63025;55.472;38.432;2023-12-20T12:45:52;4.63;;;2.40;;
74551;SDS011;63025;55.472;38.432;2023-12-20T12:48:19;4.95;;;2.33;;
74551;SDS011;63025;55.472;38.432;2023-12-20T12:50:45;5.57;;;2.47;;
74551;SDS011;63025;55.472;38.432;2023-12-20T12:53:11;4.97;;;2.40;;
74551;SDS011;63025;55.472;38.432;2023-12-20T12:55:37;4.30;;;2.20;;
74551;SDS011;63025;55.472;38.432;2023-12-20T12:58:03;5.38;;;2.65;;
74551;SDS011;63025;55.472;38.432;2023-12-20T13:00:30;3.72;;;2.00;;
74551;SDS011;63025;55.472;38.432;2023-12-20T13:02:56;4.20;;;2.20;;
74551;SDS011;63025;55.472;38.432;2023-12-20T13:05:21;4.57;;;2.15;;
74551;SDS011;63025;55.472;38.432;2023-12-20T13:07:47;4.28;;;2.50;;
74551;SDS011;63025;55.472;38.432;2023-12-20T13:10:13;4.43;;;2.20;;
74551;SDS011;63025;55.472;38.432;2023-12-20T13:12:42;4.10;;;2.15;;
74551;SDS011;63025;55.472;38.432;2023-12-20T13:15:08;4.30;;;2.58;;
74551;SDS011;63025;55.472;38.432;2023-12-20T13:17:34;6.07;;;2.55;;
74551;SDS011;63025;55.472;38.432;2023-12-20T13:20:00;5.03;;;2.45;;
74551;SDS011;63025;55.472;38.432;2023-12-20T13:22:26;4.93;;;2.60;;
74551;SDS011;63025;55.472;38.432;2023-12-20T13:24:52;5.80;;;2.90;;
74551;SDS011;63025;55.472;38.432;2023-12-20T13:27:18;4.22;;;2.25;;
74551;SDS011;63025;55.472;38.432;2023-12-20T13:29:44;5.30;;;2.40;;
74551;SDS011;63025;55.472;38.432;2023-12-20T13:32:10;5.32;;;2.60;;
74551;SDS011;63025;55.472;38.432;2023-12-20T13:34:35;4.63;;;2.25;;
74551;SDS011;63025;55.472;38.432;2023-12-20T13:37:01;4.57;;;2.50;;
74551;SDS011;63025;55.472;38.432;2023-12-20T13:39:27;5.35;;;2.45;;
74551;SDS011;63025;55.472;38.432;2023-12-20T13:41:53;4.38;;;2.28;;
74551;SDS011;63025;55.472;38.432;2023-12-20T13:44:19;4.13;;;2.30;;
74551;SDS011;63025;55.472;38.432;2023-12-20T13:46:44;5.82;;;2.58;;
74551;SDS011;63025;55.472;38.432;2023-12-20T13:49:11;5.35;;;2.35;;
74551;SDS011;63025;55.472;38.432;2023-12-20T13:51:38;5.70;;;2.40;;
74551;SDS011;63025;55.472;38.432;2023-12-20T13:54:04;4.72;;;2.80;;
74551;SDS011;63025;55.472;38.432;2023-12-20T13:56:29;5.65;;;2.80;;
74551;SDS011;63025;55.472;38.432;2023-12-20T13:58:55;6.43;;;3.00;;
74551;SDS011;63025;55.472;38.432;2023-12-20T14:01:23;5.53;;;2.75;;
74551;SDS011;63025;55.472;38.432;2023-12-20T14:03:49;6.05;;;2.70;;
74551;SDS011;63025;55.472;38.432;2023-12-20T14:06:15;5.40;;;2.75;;
74551;SDS011;63025;55.472;38.432;2023-12-20T14:08:41;4.75;;;2.58;;
74551;SDS011;63025;55.472;38.432;2023-12-20T14:11:08;5.13;;;2.78;;
74551;SDS011;63025;55.472;38.432;2023-12-20T14:13:33;5.10;;;2.83;;
74551;SDS011;63025;55.472;38.432;2023-12-20T14:15:59;6.07;;;3.30;;
74551;SDS011;63025;55.472;38.432;2023-12-20T14:18:26;6.22;;;2.85;;
74551;SDS011;63025;55.472;38.432;2023-12-20T14:20:52;4.97;;;2.50;;
74551;SDS011;63025;55.472;38.432;2023-12-20T14:23:19;5.60;;;2.60;;
74551;SDS011;63025;55.472;38.432;2023-12-20T14:25:45;5.32;;;2.30;;
74551;SDS011;63025;55.472;38.432;2023-12-20T14:28:11;4.80;;;2.60;;
74551;SDS011;63025;55.472;38.432;2023-12-20T14:30:39;4.78;;;2.67;;
74551;SDS011;63025;55.472;38.432;2023-12-20T14:33:05;5.28;;;2.55;;
74551;SDS011;63025;55.472;38.432;2023-12-20T14:35:32;5.13;;;2.63;;